Aérodrome :
LOGIN :

S'inscrire | Disclaimer

   EN    FR    IT 

 










Légende :    VFR   VFR Marginal   IFR   IFR Intensif   IFR Très Intensif
Visi : 
Plafond : 
>= 8 km
>= 3000ft
5 à 8 km
1000 à 3000 ft
1500m à 5 km
500 à 1000 ft
800 à 1500m
200 à 500 ft
< 800m
< 200 ft
Symboles :   Orages  Brouillard  Fortes neiges  Fortes précipitations  Vent > 20 kt
SIGMETs :   Divers  Orages  Givrage  Turbulence  Onde Orograph.  Cendres Volcan.







- Altitude de l'aérodrome : 510 ft


LJCE - Cerklje

DERNIER METAR :
  • 281000Z 20005KT 9999 FEW047 30/18 Q1005

METARs EXPIRÉS :
  • 280930Z VRB04KT 9999 FEW043 30/18 Q1005
  • 280900Z 24001KT 9999 FEW043 28/18 Q1005
  • 280830Z 26003KT 220V340 9999 FEW035 28/18 Q1006
  • 280800Z VRB02KT 9999 FEW030 27/17 Q1006
  • 280730Z VRB02KT 9999 FEW023 25/18 Q1006

TAF TAF LJCE
Valide du 28 à 09h jusqu'au 28 à 18h UTC


280800Z 2809/2818 25005KT 9999 FEW030
BECMG 2809/2812 26010KT
PROB40
TEMPO 2811/2818 VRB15G25KT 7000 TSRA SCT040CB BKN060
Pas de NOTAMs connus pour ce terrain.
1 SIGMET publié pour la FIR Ljubljana (LJLA) :
 
Orages noyés dans la masse
LJLA SIGMET 1 VALID 281000/281100 LJLJ
LJLA LJUBLJANA FIR EMBD TS OBS WI N4623 E01323 - N4618 E01405 - N4559 E01354 - N4551 E01307 - N4623 E01323 TOP FL380 MOV NE 15KT NC=



MET'MAP, la Météo Aéronautique d'un coup d'oeil ! - Copyright ORBIFLY Décembre 2007 - Disclaimer

ORBIFLY MET'MAP TEAM :

Programmation & Développement : Alexandra Zaïnal
Conception & Développement : Baudouin d'Aumeries
Co-Programmation & Développement : Marc-Olivier Méhu
Soutien technique & logistique : Manuel Goepfert

Contact : metmap@orbifly.com




SOURCES & CREDITS :

   NOAA